Time;durP1;ratioP1;P1;durP2;ratioP2;P2;SDS_P1;SDS_P2;PMS_P1;PMS_P2;Temp;Humidity;BMP_temperature;BMP_pressure;BME280_temperature;BME280_humidity;BME280_pressure;Samples;Min_cycle;Max_cycle;Signal;HPM_P1;HPM_P2
2022/11/16 00:02:13;;;;;;;11.07;10.38;;;;;;;8.94;100.00;100113.22;4967894;28;20069;-74
2022/11/16 00:04:38;;;;;;;10.52;9.82;;;;;;;8.84;100.00;100094.06;4967957;28;20026;-74
2022/11/16 00:07:05;;;;;;;9.23;8.60;;;;;;;8.94;100.00;100105.31;5038156;28;20048;-74
2022/11/16 00:09:31;;;;;;;10.20;9.57;;;;;;;8.94;100.00;100107.94;5076351;28;20566;-74
2022/11/16 00:12:03;;;;;;;11.63;10.85;;;;;;;8.95;100.00;100112.25;5074838;28;20604;-74
2022/11/16 00:14:32;;;;;;;9.93;9.18;;;;;;;8.86;100.00;100094.75;5059160;28;20044;-74
2022/11/16 00:16:58;;;;;;;11.38;10.65;;;;;;;8.96;100.00;100106.00;5078499;28;20024;-74
2022/11/16 00:19:24;;;;;;;12.10;11.27;;;;;;;8.93;100.00;100097.56;5075652;28;20035;-74
2022/11/16 00:21:50;;;;;;;11.30;10.30;;;;;;;8.97;100.00;100099.75;5075662;28;20031;-74
2022/11/16 00:24:17;;;;;;;13.02;12.07;;;;;;;8.93;100.00;100095.78;5078648;28;20496;-74
2022/11/16 00:26:44;;;;;;;12.43;11.52;;;;;;;8.91;100.00;100100.38;5059570;28;20020;-74
2022/11/16 00:29:16;;;;;;;11.27;10.40;;;;;;;8.97;100.00;100094.50;5071750;28;20035;-74
2022/11/16 00:31:44;;;;;;;10.15;9.50;;;;;;;8.97;100.00;100097.13;5058741;28;20107;-74
2022/11/16 00:34:10;;;;;;;9.30;8.68;;;;;;;8.98;100.00;100090.88;5077446;28;20039;-74
2022/11/16 00:36:35;;;;;;;10.40;9.75;;;;;;;9.00;100.00;100088.91;5077799;28;20025;-74
2022/11/16 00:39:02;;;;;;;11.27;10.50;;;;;;;9.02;100.00;100086.94;5078071;28;20032;-74
2022/11/16 00:41:27;;;;;;;11.93;10.95;;;;;;;9.03;100.00;100085.94;5078594;28;20028;-74
2022/11/16 00:43:52;;;;;;;11.23;10.48;;;;;;;9.03;100.00;100082.50;5077772;28;20031;-74
2022/11/16 00:46:18;;;;;;;14.20;13.00;;;;;;;9.05;100.00;100083.16;5077773;28;20028;-74
2022/11/16 00:48:43;;;;;;;10.18;9.43;;;;;;;9.05;100.00;100083.97;5058204;28;20476;-74
2022/11/16 00:51:09;;;;;;;9.73;9.05;;;;;;;9.05;100.00;100081.34;5077274;28;20211;-74
2022/11/16 00:53:34;;;;;;;10.27;9.50;;;;;;;9.07;100.00;100079.38;5045232;28;20055;-74
2022/11/16 00:56:00;;;;;;;11.50;8.88;;;;;;;9.11;100.00;100079.06;5076156;28;20044;-74
2022/11/16 00:58:25;;;;;;;9.18;8.48;;;;;;;9.12;100.00;100081.53;5077100;28;20028;-74
2022/11/16 01:00:51;;;;;;;8.95;8.40;;;;;;;9.06;100.00;100061.13;5078353;28;20446;-74
2022/11/16 01:03:16;;;;;;;10.15;9.45;;;;;;;9.15;100.00;100064.63;5076719;28;20480;-74
2022/11/16 01:05:41;;;;;;;10.93;10.02;;;;;;;9.16;100.00;100063.63;5077621;28;20023;-74
2022/11/16 01:08:07;;;;;;;8.68;7.97;;;;;;;9.18;100.00;100066.91;5078200;28;20028;-74
2022/11/16 01:10:34;;;;;;;10.23;9.40;;;;;;;9.19;100.00;100072.03;5075545;28;20060;-74
2022/11/16 01:12:59;;;;;;;9.52;8.35;;;;;;;9.19;100.00;100060.66;5060042;28;20100;-74
2022/11/16 01:15:26;;;;;;;8.25;7.65;;;;;;;9.16;100.00;100055.72;5074805;28;20032;-74
2022/11/16 01:17:53;;;;;;;13.32;10.60;;;;;;;9.22;100.00;100055.09;5074076;28;20068;-74
2022/11/16 01:20:20;;;;;;;8.23;7.63;;;;;;;9.23;100.00;100056.72;5056409;28;20115;-74
2022/11/16 01:22:46;;;;;;;8.75;8.10;;;;;;;9.23;100.00;100052.31;5076559;28;20048;-74
2022/11/16 01:25:12;;;;;;;9.18;7.45;;;;;;;9.25;100.00;100049.50;5057978;28;20024;-74
2022/11/16 01:27:38;;;;;;;8.45;7.70;;;;;;;9.17;100.00;100033.69;5058457;28;20039;-74
2022/11/16 01:30:06;;;;;;;8.38;7.88;;;;;;;9.28;100.00;100049.19;5057671;28;20475;-74
2022/11/16 01:32:32;;;;;;;7.63;7.05;;;;;;;9.27;100.00;100043.06;5058212;28;20071;-74
2022/11/16 01:34:57;;;;;;;8.98;8.10;;;;;;;9.30;100.00;100039.31;5058148;28;20029;-74
2022/11/16 01:37:22;;;;;;;7.55;6.88;;;;;;;9.31;100.00;100043.59;5057131;28;20041;-74
2022/11/16 01:39:49;;;;;;;8.60;8.02;;;;;;;9.32;100.00;100034.72;5058203;28;20024;-74
2022/11/16 01:42:23;;;;;;;8.60;7.90;;;;;;;9.33;100.00;100025.81;5077245;28;20369;-74
2022/11/16 01:44:49;;;;;;;9.13;8.45;;;;;;;9.34;100.00;100029.25;5075129;28;20028;-74
2022/11/16 01:47:16;;;;;;;9.10;8.40;;;;;;;9.32;100.00;100018.06;5055722;28;20483;-74
2022/11/16 01:49:46;;;;;;;9.60;7.47;;;;;;;9.36;100.00;100025.47;5058390;28;20115;-74
2022/11/16 01:52:15;;;;;;;10.68;9.68;;;;;;;9.30;100.00;100015.63;5075123;28;20031;-74
2022/11/16 01:54:44;;;;;;;7.82;7.28;;;;;;;9.25;100.00;99997.69;5057074;28;20052;-74
2022/11/16 01:57:14;;;;;;;8.10;7.50;;;;;;;9.41;100.00;100019.75;5074123;28;20106;-75
2022/11/16 01:59:42;;;;;;;10.55;7.82;;;;;;;9.40;100.00;100013.63;5057565;28;20052;-74
2022/11/16 02:02:08;;;;;;;8.05;7.22;;;;;;;9.41;100.00;100012.66;5072763;28;20071;-74
2022/11/16 02:04:33;;;;;;;8.50;7.80;;;;;;;9.46;100.00;100010.34;5074493;28;20423;-74
2022/11/16 02:07:23;;;;;;;7.55;6.93;;;;;;;9.48;100.00;100004.94;5074097;28;20036;-75
2022/11/16 02:09:57;;;;;;;6.47;5.93;;;;;;;9.48;100.00;100002.31;5075101;28;20044;-75
2022/11/16 02:12:38;;;;;;;8.55;8.05;;;;;;;9.47;100.00;100001.47;5075201;28;20026;-74
2022/11/16 02:15:24;;;;;;;6.75;5.75;;;;;;;9.49;100.00;99993.41;5075669;28;20035;-74
2022/11/16 02:18:27;;;;;;;4.97;4.47;;;;;;;9.49;100.00;99985.50;5074813;28;20501;-74
2022/11/16 02:20:58;;;;;;;5.20;4.80;;;;;;;9.51;100.00;99980.88;5058994;28;20036;-75
2022/11/16 02:24:00;;;;;;;6.85;6.30;;;;;;;9.47;100.00;99977.78;5073890;28;20029;-74
2022/11/16 02:27:33;;;;;;;7.30;6.57;;;;;;;9.53;100.00;99986.00;5074407;28;20502;-74
2022/11/16 02:29:59;;;;;;;5.22;4.82;;;;;;;9.51;100.00;99986.16;4976393;28;20600;-75
2022/11/16 02:32:38;;;;;;;6.90;6.45;;;;;;;9.51;100.00;99987.97;4973561;28;20034;-74
2022/11/16 02:35:13;;;;;;;7.60;6.97;;;;;;;9.51;100.00;99978.25;4952434;28;20034;-74
2022/11/16 02:37:44;;;;;;;8.25;7.70;;;;;;;9.40;100.00;99958.31;4972653;28;20038;-74
2022/11/16 02:40:12;;;;;;;7.10;6.40;;;;;;;9.51;100.00;99978.25;4976572;28;20147;-74
2022/11/16 02:42:47;;;;;;;7.03;6.05;;;;;;;9.51;100.00;99970.34;4975521;28;20399;-74
2022/11/16 02:45:19;;;;;;;5.85;5.45;;;;;;;9.51;100.00;99969.53;4974164;28;20047;-75
2022/11/16 02:47:49;;;;;;;12.70;8.68;;;;;;;9.48;100.00;99960.97;4976255;28;20035;-74
2022/11/16 02:50:17;;;;;;;6.55;5.95;;;;;;;9.48;100.00;99966.25;4972723;28;20054;-74
2022/11/16 02:52:43;;;;;;;6.97;6.45;;;;;;;9.46;100.00;99962.94;4975596;28;20490;-74
2022/11/16 02:55:08;;;;;;;8.18;7.53;;;;;;;9.39;100.00;99951.44;4973551;28;20085;-74
2022/11/16 02:57:42;;;;;;;7.47;6.97;;;;;;;9.44;100.00;99954.38;4957903;28;20473;-74
2022/11/16 03:00:17;;;;;;;8.88;6.88;;;;;;;9.42;100.00;99952.91;4975590;28;20046;-74
2022/11/16 03:03:15;;;;;;;6.57;5.97;;;;;;;9.43;100.00;99963.28;4980843;28;20049;-75
2022/11/16 03:05:47;;;;;;;8.60;5.95;;;;;;;9.42;100.00;99963.44;5044338;28;20040;-75
2022/11/16 03:08:29;;;;;;;6.50;6.00;;;;;;;9.41;100.00;99960.00;5075380;28;20028;-75
2022/11/16 03:13:46;;;;;;;6.43;5.82;;;;;;;9.31;100.00;99938.25;5076399;28;20101;-74
2022/11/16 03:16:20;;;;;;;6.68;6.07;;;;;;;9.37;100.00;99948.13;5074760;28;20492;-74
2022/11/16 03:18:48;;;;;;;6.97;6.30;;;;;;;9.36;100.00;99946.47;5073513;28;20024;-75
2022/11/16 03:21:27;;;;;;;6.63;6.15;;;;;;;9.35;100.00;99950.09;5075613;28;20028;-74
2022/11/16 03:23:53;;;;;;;7.63;7.03;;;;;;;9.15;100.00;99918.00;5075528;28;20451;-74
2022/11/16 03:26:23;;;;;;;6.13;5.68;;;;;;;9.26;100.00;99946.66;5055525;28;20044;-74
2022/11/16 03:28:59;;;;;;;7.10;6.50;;;;;;;9.33;100.00;99946.00;5073564;28;20031;-74
2022/11/16 03:31:33;;;;;;;6.55;5.95;;;;;;;9.30;100.00;99946.31;5074634;28;20453;-74
2022/11/16 03:34:06;;;;;;;6.07;4.72;;;;;;;9.19;100.00;99929.03;5072426;28;20085;-74
2022/11/16 03:36:40;;;;;;;6.53;5.95;;;;;;;9.26;100.00;99938.75;5073576;28;20024;-74
2022/11/16 03:39:11;;;;;;;7.50;6.88;;;;;;;9.24;100.00;99932.00;5040834;28;20525;-74
2022/11/16 03:41:40;;;;;;;7.15;6.50;;;;;;;9.08;100.00;99914.41;5072151;28;20028;-74
2022/11/16 03:44:09;;;;;;;5.97;5.55;;;;;;;9.21;100.00;99941.06;5075979;28;20166;-74
2022/11/16 03:46:35;;;;;;;8.15;7.30;;;;;;;9.20;100.00;99930.69;5076132;28;20047;-74
2022/11/16 03:49:00;;;;;;;5.88;4.95;;;;;;;9.07;100.00;99913.56;5055487;28;20071;-74
2022/11/16 03:51:26;;;;;;;6.28;5.78;;;;;;;9.19;100.00;99923.75;5055438;28;20111;-74
2022/11/16 03:53:52;;;;;;;7.75;6.30;;;;;;;9.05;100.00;99897.09;5079154;28;20029;-74
2022/11/16 03:56:17;;;;;;;8.07;6.57;;;;;;;9.18;100.00;99922.94;5060300;28;20028;-74
2022/11/16 03:58:43;;;;;;;5.97;5.50;;;;;;;9.11;100.00;99914.06;5077909;28;20035;-74
2022/11/16 04:01:08;;;;;;;7.10;6.45;;;;;;;9.18;100.00;99928.22;5075836;28;20117;-74
2022/11/16 04:03:33;;;;;;;7.25;6.65;;;;;;;9.17;100.00;99912.59;5078240;28;20034;-75
2022/11/16 04:25:46;;;;;;;7.07;6.03;;;;;;;9.05;100.00;99897.09;5040010;28;20090;-74
2022/11/16 04:28:13;;;;;;;9.57;7.22;;;;;;;9.06;100.00;99896.13;5020817;28;20029;-74
2022/11/16 04:38:52;;;;;;;6.47;6.03;;;;;;;9.06;100.00;99893.50;5039769;28;20080;-74
2022/11/16 04:42:21;;;;;;;7.38;6.68;;;;;;;9.18;100.00;99924.75;5038902;28;20061;-75
2022/11/16 04:44:12;;;;;;;5.55;5.13;;;;;;;9.10;100.00;99911.56;5021964;28;20041;-75
2022/11/16 04:49:22;;;;;;;7.47;6.78;;;;;;;9.16;100.00;99937.25;5024649;28;20063;-74
2022/11/16 04:51:47;;;;;;;8.18;7.38;;;;;;;8.98;100.00;99904.00;5039417;28;20025;-74
2022/11/16 04:54:12;;;;;;;10.38;7.72;;;;;;;9.15;100.00;99927.72;5037022;28;20021;-74
2022/11/16 04:56:38;;;;;;;13.45;6.25;;;;;;;9.15;100.00;99925.91;5037146;28;20036;-74
2022/11/16 04:59:03;;;;;;;9.00;8.25;;;;;;;9.03;100.00;99909.59;5039588;28;20033;-74
2022/11/16 05:04:12;;;;;;;7.78;7.07;;;;;;;9.17;100.00;99918.69;5034571;28;20543;-74
2022/11/16 05:06:38;;;;;;;7.38;6.38;;;;;;;9.17;100.00;99928.38;5039275;28;20026;-74
2022/11/16 05:09:03;;;;;;;7.82;7.20;;;;;;;9.17;100.00;99921.31;5033004;28;20043;-74
2022/11/16 05:11:28;;;;;;;9.48;7.53;;;;;;;9.16;100.00;99918.81;5057266;28;20039;-74
2022/11/16 05:13:54;;;;;;;8.18;7.05;;;;;;;9.16;100.00;99918.81;5075080;28;20046;-75
2022/11/16 05:16:19;;;;;;;8.68;7.18;;;;;;;9.17;100.00;99926.56;5059806;28;20546;-74
2022/11/16 05:20:59;;;;;;;7.82;7.03;;;;;;;9.17;100.00;99916.03;5077066;28;20020;-74
2022/11/16 05:21:30;;;;;;;7.05;6.55;;;;;;;9.18;100.00;99912.41;5074797;28;20049;-74
2022/11/16 05:26:39;;;;;;;8.18;6.82;;;;;;;9.19;100.00;99918.50;5075699;28;20028;-75
2022/11/16 05:29:04;;;;;;;6.90;6.32;;;;;;;9.13;100.00;99901.56;5078773;28;20028;-75
2022/11/16 05:31:30;;;;;;;8.25;6.47;;;;;;;9.14;100.00;99911.09;5054503;28;20040;-74
2022/11/16 05:33:55;;;;;;;7.88;6.72;;;;;;;9.16;100.00;99914.38;5040046;28;20032;-75
2022/11/16 05:36:21;;;;;;;9.27;8.52;;;;;;;9.17;100.00;99915.22;5054498;28;20119;-75
2022/11/16 05:38:46;;;;;;;10.65;7.70;;;;;;;9.16;100.00;99909.13;5077118;28;20090;-74
2022/11/16 05:41:12;;;;;;;8.30;6.75;;;;;;;9.16;100.00;99914.38;5075442;28;20123;-74
2022/11/16 05:43:37;;;;;;;6.80;6.28;;;;;;;9.16;100.00;99913.56;5071188;28;20040;-74
2022/11/16 05:46:02;;;;;;;7.47;6.78;;;;;;;9.13;100.00;99927.06;5074874;28;20070;-74
2022/11/16 05:48:28;;;;;;;10.80;8.27;;;;;;;9.12;100.00;99920.13;5057000;28;20079;-74
2022/11/16 05:50:57;;;;;;;7.63;6.95;;;;;;;9.13;100.00;99929.69;5057251;28;20115;-74
2022/11/16 05:53:23;;;;;;;7.70;6.85;;;;;;;9.13;100.00;99921.81;5060226;28;20049;-74
2022/11/16 05:55:48;;;;;;;7.70;6.60;;;;;;;9.00;100.00;99906.47;5058111;28;20396;-74
2022/11/16 05:58:13;;;;;;;8.75;7.60;;;;;;;9.10;100.00;99922.09;5055897;28;20032;-75
2022/11/16 06:00:39;;;;;;;17.80;7.00;;;;;;;9.11;100.00;99931.66;5071361;28;20588;-75
2022/11/16 06:03:04;;;;;;;7.07;6.43;;;;;;;9.10;100.00;99930.00;5057308;28;20037;-74
2022/11/16 06:05:29;;;;;;;8.18;7.38;;;;;;;9.06;100.00;99930.34;5073563;28;20115;-74
2022/11/16 06:07:55;;;;;;;8.52;7.72;;;;;;;9.04;100.00;99936.75;5055514;28;20039;-74
2022/11/16 06:10:20;;;;;;;10.57;8.20;;;;;;;8.91;100.00;99910.91;5073816;28;20380;-74
2022/11/16 06:12:46;;;;;;;9.18;8.02;;;;;;;9.03;100.00;99941.19;5039668;28;20032;-74
2022/11/16 06:15:11;;;;;;;8.02;7.22;;;;;;;9.03;100.00;99941.19;5072275;28;20032;-74
2022/11/16 06:17:36;;;;;;;7.88;7.07;;;;;;;9.02;100.00;99947.44;5072528;28;20020;-74
2022/11/16 06:20:02;;;;;;;7.88;7.18;;;;;;;9.01;100.00;99932.63;5053520;28;20483;-74
2022/11/16 06:22:27;;;;;;;8.07;7.40;;;;;;;9.10;100.00;99956.31;5073632;28;20122;-74
2022/11/16 06:24:52;;;;;;;8.73;7.88;;;;;;;8.93;100.00;99929.16;5074523;28;20475;-75
2022/11/16 06:27:18;;;;;;;9.85;8.02;;;;;;;9.07;100.00;99958.28;5052124;28;20040;-74
2022/11/16 06:29:43;;;;;;;9.63;6.28;;;;;;;9.06;100.00;99951.41;5073386;28;20059;-74
2022/11/16 06:32:08;;;;;;;7.15;6.50;;;;;;;8.99;100.00;99937.25;5055984;28;20037;-75
2022/11/16 06:34:34;;;;;;;8.30;7.50;;;;;;;9.12;100.00;99970.97;5054362;28;20036;-75
2022/11/16 06:36:59;;;;;;;9.70;6.63;;;;;;;9.10;100.00;99964.22;5037608;28;20169;-75
2022/11/16 06:39:24;;;;;;;10.02;6.75;;;;;;;8.96;100.00;99950.72;5067748;28;20579;-75
2022/11/16 06:41:50;;;;;;;8.00;7.20;;;;;;;9.09;100.00;99971.31;5056786;28;20039;-74
2022/11/16 06:44:15;;;;;;;9.88;7.80;;;;;;;9.10;100.00;99974.75;5039166;28;20544;-75
2022/11/16 06:46:40;;;;;;;9.30;7.95;;;;;;;9.09;100.00;99981.84;5051747;28;20427;-75
2022/11/16 06:49:06;;;;;;;7.18;6.60;;;;;;;9.10;100.00;99977.38;5070942;28;20538;-74
2022/11/16 06:51:31;;;;;;;6.88;6.28;;;;;;;9.13;100.00;99991.06;5074226;28;20055;-74
2022/11/16 06:53:56;;;;;;;6.85;6.28;;;;;;;9.16;100.00;99992.53;5051453;28;20171;-74
2022/11/16 06:56:22;;;;;;;6.95;6.40;;;;;;;9.15;100.00;99985.66;5070806;28;20134;-74
2022/11/16 06:58:47;;;;;;;7.70;6.97;;;;;;;9.17;100.00;99991.56;5052800;28;20078;-74
2022/11/16 07:01:12;;;;;;;8.80;8.00;;;;;;;9.16;100.00;99998.63;5073508;28;20119;-74
2022/11/16 07:03:38;;;;;;;6.82;6.15;;;;;;;9.03;100.00;99978.03;5072349;28;20024;-74
2022/11/16 07:06:08;;;;;;;9.32;8.30;;;;;;;9.15;100.00;99997.00;5071014;28;20020;-74
2022/11/16 07:08:34;;;;;;;11.07;7.53;;;;;;;9.16;100.00;100003.06;5074233;28;20054;-74
2022/11/16 07:11:04;;;;;;;7.28;6.53;;;;;;;9.17;100.00;100002.09;5057320;28;20056;-75
2022/11/16 07:13:31;;;;;;;10.27;7.65;;;;;;;9.22;100.00;100015.59;5073702;28;20076;-75
2022/11/16 07:16:04;;;;;;;9.07;6.65;;;;;;;9.26;100.00;100019.56;5072979;28;20033;-75
2022/11/16 07:18:33;;;;;;;9.82;8.40;;;;;;;9.29;100.00;100026.31;5073288;28;20032;-75
2022/11/16 07:20:58;;;;;;;8.88;8.07;;;;;;;9.29;100.00;100029.75;5073426;28;20088;-75
2022/11/16 07:23:24;;;;;;;8.45;6.60;;;;;;;9.29;100.00;100029.75;5071391;28;20029;-75
2022/11/16 07:25:49;;;;;;;7.00;6.25;;;;;;;9.31;100.00;100035.69;5052278;28;20029;-75
2022/11/16 07:28:14;;;;;;;8.35;7.55;;;;;;;9.35;100.00;100034.38;5042227;28;20024;-75
2022/11/16 07:30:40;;;;;;;7.60;7.03;;;;;;;9.34;100.00;100042.44;5058691;28;20404;-74
2022/11/16 07:33:05;;;;;;;7.22;6.53;;;;;;;9.35;100.00;100050.19;5078498;28;20481;-74
2022/11/16 07:35:30;;;;;;;6.85;6.25;;;;;;;9.39;100.00;100051.50;5076571;28;20024;-74
2022/11/16 07:37:56;;;;;;;6.68;5.97;;;;;;;9.43;100.00;100055.47;5056769;28;20032;-74
2022/11/16 07:40:21;;;;;;;8.13;7.32;;;;;;;9.43;100.00;100057.28;5058105;28;20336;-75
2022/11/16 07:42:47;;;;;;;7.25;6.32;;;;;;;9.33;100.00;100035.53;5059599;28;20024;-74
2022/11/16 07:45:12;;;;;;;6.70;5.82;;;;;;;9.42;100.00;100063.53;5058328;28;20032;-74
2022/11/16 07:47:38;;;;;;;7.43;6.72;;;;;;;9.43;100.00;100063.38;5076602;28;20070;-75
2022/11/16 07:50:04;;;;;;;7.57;6.75;;;;;;;9.42;100.00;100060.88;5076906;28;20033;-75
2022/11/16 07:52:30;;;;;;;5.57;5.05;;;;;;;9.35;100.00;100041.47;5077156;28;20016;-75
2022/11/16 07:54:55;;;;;;;6.00;5.35;;;;;;;9.46;100.00;100052.50;5058714;28;20043;-76
2022/11/16 07:57:21;;;;;;;7.55;6.10;;;;;;;9.38;100.00;100047.22;5056720;28;20032;-75
2022/11/16 07:59:46;;;;;;;6.50;5.97;;;;;;;9.52;100.00;100060.75;5078606;28;20458;-75
2022/11/16 08:02:11;;;;;;;6.22;5.65;;;;;;;9.51;100.00;100067.81;5076494;28;20024;-75
2022/11/16 08:04:37;;;;;;;6.50;5.90;;;;;;;9.52;100.00;100066.84;5077762;28;20431;-75
2022/11/16 08:07:03;;;;;;;8.75;6.57;;;;;;;9.48;100.00;100061.06;5076358;28;20032;-75
2022/11/16 08:09:28;;;;;;;7.13;5.97;;;;;;;9.41;100.00;100039.00;5058920;28;20075;-75
2022/11/16 08:11:54;;;;;;;7.85;7.13;;;;;;;9.44;100.00;100056.28;5057934;28;20071;-76
2022/11/16 08:14:19;;;;;;;9.18;8.30;;;;;;;9.49;100.00;100077.69;5057683;28;20114;-75
2022/11/16 08:16:45;;;;;;;7.90;7.30;;;;;;;9.39;100.00;100080.47;5060346;28;20086;-75
2022/11/16 08:19:10;;;;;;;8.60;6.47;;;;;;;9.31;100.00;100083.09;5058291;28;20051;-74
2022/11/16 08:21:35;;;;;;;6.40;5.68;;;;;;;9.43;100.00;100105.50;5058451;28;20482;-75
2022/11/16 08:24:01;;;;;;;6.78;6.18;;;;;;;9.41;100.00;100104.84;5075650;28;20518;-75
2022/11/16 08:26:26;;;;;;;7.60;6.72;;;;;;;9.29;100.00;100094.75;5078024;28;20074;-75
2022/11/16 08:28:52;;;;;;;7.85;7.15;;;;;;;9.25;100.00;100092.47;5044003;28;20024;-75
2022/11/16 08:31:21;;;;;;;7.65;6.72;;;;;;;9.39;100.00;100109.44;5056178;28;20028;-75
2022/11/16 08:33:50;;;;;;;6.43;5.60;;;;;;;9.42;100.00;100109.13;5076760;28;20021;-75
2022/11/16 08:36:16;;;;;;;8.25;6.30;;;;;;;9.34;100.00;100085.41;5058876;28;20054;-75
2022/11/16 08:38:46;;;;;;;8.00;7.13;;;;;;;9.41;100.00;100102.22;5073028;28;20056;-75
2022/11/16 08:41:12;;;;;;;8.07;7.28;;;;;;;9.45;100.00;100097.44;5043965;28;20051;-75
2022/11/16 08:43:40;;;;;;;8.30;6.80;;;;;;;9.42;100.00;100080.13;5076215;28;20463;-75
2022/11/16 08:46:08;;;;;;;8.63;7.82;;;;;;;9.48;100.00;100087.41;5058975;28;20032;-75
2022/11/16 08:48:34;;;;;;;9.93;6.88;;;;;;;9.42;100.00;100088.03;5074577;28;20038;-75
2022/11/16 08:51:13;;;;;;;7.50;6.30;;;;;;;9.47;100.00;100096.31;5058173;28;20036;-75
2022/11/16 08:53:38;;;;;;;8.02;7.15;;;;;;;9.43;100.00;100083.63;5074755;28;20100;-75
2022/11/16 08:56:07;;;;;;;7.07;6.38;;;;;;;9.47;100.00;100117.38;5057910;28;20563;-75
2022/11/16 08:58:33;;;;;;;10.55;6.43;;;;;;;9.47;100.00;100122.66;5057096;28;20037;-75
2022/11/16 09:01:08;;;;;;;7.45;6.32;;;;;;;9.34;100.00;100101.22;5075512;28;20020;-75
2022/11/16 09:03:34;;;;;;;6.30;4.93;;;;;;;9.46;100.00;100120.97;5059497;28;20373;-74
2022/11/16 09:05:59;;;;;;;9.98;9.02;;;;;;;9.46;100.00;100125.44;5074523;28;20085;-74
2022/11/16 09:08:24;;;;;;;8.70;6.85;;;;;;;9.43;100.00;100126.59;5042231;28;20035;-74
2022/11/16 09:10:50;;;;;;;9.25;8.30;;;;;;;9.42;100.00;100118.81;5058037;28;20048;-75
2022/11/16 09:13:15;;;;;;;7.55;6.80;;;;;;;9.52;100.00;100126.59;5057204;28;20025;-74
2022/11/16 09:15:41;;;;;;;9.07;7.97;;;;;;;9.45;100.00;100127.25;5074255;28;20020;-75
2022/11/16 09:18:06;;;;;;;8.32;6.63;;;;;;;9.48;100.00;100124.28;5054999;28;20494;-75
2022/11/16 09:20:32;;;;;;;9.65;6.97;;;;;;;9.53;100.00;100130.88;5075232;28;20099;-75
2022/11/16 09:22:57;;;;;;;7.95;7.20;;;;;;;9.50;100.00;100128.56;5041672;28;20033;-74
2022/11/16 09:25:22;;;;;;;9.02;8.10;;;;;;;9.55;100.00;100128.91;5058573;28;20052;-75
2022/11/16 09:27:48;;;;;;;7.55;6.53;;;;;;;9.44;100.00;100116.88;5056522;28;20028;-75
2022/11/16 09:30:13;;;;;;;6.38;5.82;;;;;;;9.56;100.00;100135.81;5056305;28;20048;-75
2022/11/16 09:32:39;;;;;;;7.65;6.53;;;;;;;9.55;100.00;100137.63;5075583;28;20025;-75
2022/11/16 09:35:05;;;;;;;8.82;6.55;;;;;;;9.50;100.00;100145.19;5075327;28;20611;-75
2022/11/16 09:37:30;;;;;;;8.98;8.02;;;;;;;9.56;100.00;100146.34;5076287;28;20059;-75
2022/11/16 09:39:57;;;;;;;7.10;6.50;;;;;;;9.53;100.00;100155.41;5041913;28;20032;-75
2022/11/16 09:42:40;;;;;;;7.18;6.50;;;;;;;9.54;100.00;100153.59;5041326;28;20060;-75
2022/11/16 09:45:31;;;;;;;6.93;6.25;;;;;;;9.41;100.00;100128.53;5074777;28;20098;-74
2022/11/16 09:48:01;;;;;;;5.70;5.10;;;;;;;9.50;100.00;100136.47;5058302;28;20032;-74
2022/11/16 09:50:34;;;;;;;7.32;6.65;;;;;;;9.57;100.00;100148.84;5057664;28;20890;-74
2022/11/16 09:53:26;;;;;;;7.25;6.55;;;;;;;9.59;100.00;100140.78;5076439;28;20947;-74
2022/11/16 09:55:57;;;;;;;8.07;6.65;;;;;;;9.66;100.00;100149.69;5041980;28;20028;-74
2022/11/16 09:58:51;;;;;;;8.55;7.47;;;;;;;9.66;100.00;100150.50;5073722;28;20123;-74
2022/11/16 10:01:26;;;;;;;7.95;6.30;;;;;;;9.81;100.00;100166.50;5075737;28;20028;-74
2022/11/16 10:03:59;;;;;;;7.75;7.05;;;;;;;9.83;100.00;100164.53;5073236;28;20518;-75
2022/11/16 10:06:39;;;;;;;7.00;6.40;;;;;;;9.85;100.00;100157.28;5074286;28;20360;-74
2022/11/16 10:09:04;;;;;;;8.55;7.70;;;;;;;9.83;100.00;100151.38;5073679;28;20020;-74
2022/11/16 10:11:53;;;;;;;8.75;7.97;;;;;;;9.90;100.00;100159.44;5041041;28;20024;-74
2022/11/16 10:14:46;;;;;;;10.40;7.68;;;;;;;10.00;100.00;100162.75;5074667;28;20519;-75
2022/11/16 10:17:35;;;;;;;8.77;7.72;;;;;;;10.11;100.00;100160.81;5072873;28;20025;-74
2022/11/16 10:20:01;;;;;;;9.75;8.35;;;;;;;10.25;100.00;100153.03;5055427;28;20499;-74
2022/11/16 10:23:14;;;;;;;9.40;8.68;;;;;;;10.38;100.00;100152.56;5073340;28;20025;-75
2022/11/16 10:25:44;;;;;;;8.82;8.05;;;;;;;10.57;100.00;100154.06;4992811;28;20499;-75
2022/11/16 10:28:31;;;;;;;9.68;8.68;;;;;;;10.75;100.00;100159.13;4977494;28;20498;-74
2022/11/16 10:31:20;;;;;;;9.75;8.52;;;;;;;10.78;100.00;100145.63;4978050;28;20034;-75
2022/11/16 10:33:49;;;;;;;11.95;8.65;;;;;;;10.86;100.00;100150.03;4993626;28;20490;-75
2022/11/16 10:36:15;;;;;;;7.32;6.63;;;;;;;10.75;100.00;100142.47;4992303;28;20394;-75
2022/11/16 10:38:43;;;;;;;8.23;7.43;;;;;;;10.85;100.00;100145.75;4992581;28;20125;-75
2022/11/16 10:41:28;;;;;;;7.10;6.40;;;;;;;10.83;100.00;100142.47;4992696;28;20073;-75
2022/11/16 10:43:56;;;;;;;10.32;8.18;;;;;;;10.80;100.00;100137.50;4961010;28;20033;-75
2022/11/16 10:46:39;;;;;;;8.35;7.65;;;;;;;10.79;100.00;100128.78;4992855;28;20026;-75
2022/11/16 10:49:23;;;;;;;8.00;7.13;;;;;;;10.70;100.00;100129.78;4992294;28;20080;-74
2022/11/16 10:51:48;;;;;;;7.38;6.60;;;;;;;10.96;100.00;100136.66;4992717;28;20353;-74
2022/11/16 10:54:16;;;;;;;9.02;7.55;;;;;;;11.13;100.00;100132.97;4978672;28;20046;-74
2022/11/16 10:56:44;;;;;;;8.65;7.85;;;;;;;11.04;100.00;100131.34;4992849;28;20060;-75
2022/11/16 10:59:14;;;;;;;9.57;8.20;;;;;;;10.99;100.00;100133.66;4992120;28;20045;-75
2022/11/16 11:01:56;;;;;;;7.60;6.80;;;;;;;10.87;100.00;100109.47;5051894;28;20036;-75
2022/11/16 11:04:30;;;;;;;7.30;6.13;;;;;;;11.07;100.00;100129.19;5060945;28;20411;-74
2022/11/16 11:07:01;;;;;;;8.70;6.93;;;;;;;10.95;100.00;100127.06;5077789;28;20032;-74
2022/11/16 11:09:37;;;;;;;7.88;5.63;;;;;;;10.96;100.00;100124.28;5077015;28;20127;-75
2022/11/16 11:15:22;;;;;;;7.32;6.68;;;;;;;10.80;100.00;100122.53;5078246;28;20082;-75
2022/11/16 11:18:05;;;;;;;8.30;5.90;;;;;;;10.74;100.00;100130.28;5075794;28;20024;-75
2022/11/16 11:20:31;;;;;;;6.65;5.97;;;;;;;10.77;100.00;100128.13;5059764;28;20431;-74
2022/11/16 11:23:04;;;;;;;7.15;6.57;;;;;;;10.56;100.00;100106.72;5043709;28;20029;-75
2022/11/16 11:25:40;;;;;;;9.30;7.47;;;;;;;10.62;100.00;100127.16;5077910;28;20034;-75
2022/11/16 11:28:23;;;;;;;9.73;8.88;;;;;;;10.58;100.00;100125.84;5075954;28;20021;-75
2022/11/16 11:31:21;;;;;;;8.35;7.30;;;;;;;10.59;100.00;100138.06;5076990;28;20559;-75
2022/11/16 11:34:03;;;;;;;7.53;5.97;;;;;;;10.53;100.00;100125.53;5077853;28;20020;-75
2022/11/16 11:36:45;;;;;;;6.50;5.95;;;;;;;10.54;100.00;100113.97;5074887;28;20029;-75
2022/11/16 11:39:10;;;;;;;9.13;7.43;;;;;;;10.64;100.00;100131.28;5076029;28;20035;-75
2022/11/16 11:41:38;;;;;;;8.05;7.30;;;;;;;10.74;100.00;100125.00;5075917;28;20016;-75
2022/11/16 11:44:12;;;;;;;8.02;7.22;;;;;;;10.83;100.00;100130.09;5077659;28;20035;-75
2022/11/16 11:46:43;;;;;;;8.15;7.35;;;;;;;10.95;100.00;100124.44;5075782;28;20027;-75
2022/11/16 11:49:15;;;;;;;10.10;9.13;;;;;;;11.07;100.00;100131.81;5077363;28;20032;-74
2022/11/16 11:51:44;;;;;;;9.35;8.20;;;;;;;10.90;100.00;100103.84;5075693;28;20052;-74
2022/11/16 11:54:31;;;;;;;8.27;6.88;;;;;;;11.07;100.00;100121.25;5075673;28;20074;-76
2022/11/16 11:56:59;;;;;;;8.15;7.35;;;;;;;10.97;100.00;100111.91;5057512;28;20050;-76
2022/11/16 11:59:26;;;;;;;8.38;7.35;;;;;;;10.88;100.00;100096.06;5076179;28;20043;-76
2022/11/16 12:02:28;;;;;;;6.47;5.82;;;;;;;11.01;100.00;100105.28;5056901;28;20443;-75
2022/11/16 12:05:33;;;;;;;9.00;5.28;;;;;;;10.98;100.00;100106.44;5076064;28;20111;-75
2022/11/16 12:08:19;;;;;;;6.07;5.38;;;;;;;11.07;100.00;100099.31;5037056;28;20032;-75
2022/11/16 12:11:16;;;;;;;6.32;5.72;;;;;;;11.16;100.00;100108.03;5073962;28;20424;-75
2022/11/16 12:14:08;;;;;;;10.60;6.05;;;;;;;11.24;100.00;100100.91;5037690;28;20150;-75
2022/11/16 12:16:52;;;;;;;8.52;5.20;;;;;;;11.18;100.00;100092.84;5076574;28;20380;-75
2022/11/16 12:19:58;;;;;;;7.95;5.22;;;;;;;11.14;100.00;100075.69;5075584;28;20476;-75
2022/11/16 12:22:47;;;;;;;4.95;4.43;;;;;;;11.26;100.00;100076.97;5074719;28;20130;-75